sensor_id;sensor_type;location;lat;lon;timestamp;P1;durP1;ratioP1;P2;durP2;ratioP2
19343;SDS011;9808;52.402;16.678;2023-08-06T00:02:26;7.30;;;3.38;;
19343;SDS011;9808;52.402;16.678;2023-08-06T00:04:53;6.72;;;3.33;;
19343;SDS011;9808;52.402;16.678;2023-08-06T00:07:21;5.35;;;3.08;;
19343;SDS011;9808;52.402;16.678;2023-08-06T00:09:48;6.47;;;3.20;;
19343;SDS011;9808;52.402;16.678;2023-08-06T00:12:15;5.25;;;3.00;;
19343;SDS011;9808;52.402;16.678;2023-08-06T00:14:43;7.13;;;3.50;;
19343;SDS011;9808;52.402;16.678;2023-08-06T00:17:10;7.55;;;3.00;;
19343;SDS011;9808;52.402;16.678;2023-08-06T00:19:37;5.68;;;2.97;;
19343;SDS011;9808;52.402;16.678;2023-08-06T00:22:05;7.57;;;3.67;;
19343;SDS011;9808;52.402;16.678;2023-08-06T00:24:32;7.97;;;3.22;;
19343;SDS011;9808;52.402;16.678;2023-08-06T00:27:00;5.40;;;3.10;;
19343;SDS011;9808;52.402;16.678;2023-08-06T00:29:29;6.05;;;3.10;;
19343;SDS011;9808;52.402;16.678;2023-08-06T00:31:56;7.28;;;3.58;;
19343;SDS011;9808;52.402;16.678;2023-08-06T00:34:25;7.38;;;3.40;;
19343;SDS011;9808;52.402;16.678;2023-08-06T00:36:52;7.28;;;3.58;;
19343;SDS011;9808;52.402;16.678;2023-08-06T00:39:21;7.88;;;3.85;;
19343;SDS011;9808;52.402;16.678;2023-08-06T00:41:49;7.22;;;3.47;;
19343;SDS011;9808;52.402;16.678;2023-08-06T00:44:19;8.02;;;3.45;;
19343;SDS011;9808;52.402;16.678;2023-08-06T00:46:46;10.00;;;3.75;;
19343;SDS011;9808;52.402;16.678;2023-08-06T00:49:14;8.32;;;3.50;;
19343;SDS011;9808;52.402;16.678;2023-08-06T00:51:41;8.70;;;3.75;;
19343;SDS011;9808;52.402;16.678;2023-08-06T00:54:09;7.82;;;3.53;;
19343;SDS011;9808;52.402;16.678;2023-08-06T00:56:36;8.20;;;3.67;;
19343;SDS011;9808;52.402;16.678;2023-08-06T00:59:04;9.18;;;3.85;;
19343;SDS011;9808;52.402;16.678;2023-08-06T01:01:32;9.18;;;3.72;;
19343;SDS011;9808;52.402;16.678;2023-08-06T01:04:00;9.65;;;3.90;;
19343;SDS011;9808;52.402;16.678;2023-08-06T01:09:29;10.73;;;3.60;;
19343;SDS011;9808;52.402;16.678;2023-08-06T01:11:57;7.22;;;4.15;;
19343;SDS011;9808;52.402;16.678;2023-08-06T01:14:28;9.68;;;4.15;;
19343;SDS011;9808;52.402;16.678;2023-08-06T01:16:58;8.07;;;4.25;;
19343;SDS011;9808;52.402;16.678;2023-08-06T01:19:27;7.25;;;3.75;;
19343;SDS011;9808;52.402;16.678;2023-08-06T01:21:54;5.80;;;3.83;;
19343;SDS011;9808;52.402;16.678;2023-08-06T01:24:21;6.20;;;3.65;;
19343;SDS011;9808;52.402;16.678;2023-08-06T01:26:51;7.35;;;3.70;;
19343;SDS011;9808;52.402;16.678;2023-08-06T01:29:28;12.52;;;4.38;;
19343;SDS011;9808;52.402;16.678;2023-08-06T01:31:56;6.75;;;3.88;;
19343;SDS011;9808;52.402;16.678;2023-08-06T01:34:28;7.32;;;3.90;;
19343;SDS011;9808;52.402;16.678;2023-08-06T01:36:57;8.90;;;4.03;;
19343;SDS011;9808;52.402;16.678;2023-08-06T01:39:26;6.22;;;3.67;;
19343;SDS011;9808;52.402;16.678;2023-08-06T01:41:54;10.40;;;4.03;;
19343;SDS011;9808;52.402;16.678;2023-08-06T01:44:21;6.82;;;3.85;;
19343;SDS011;9808;52.402;16.678;2023-08-06T01:46:49;6.97;;;3.45;;
19343;SDS011;9808;52.402;16.678;2023-08-06T01:49:17;6.55;;;3.70;;
19343;SDS011;9808;52.402;16.678;2023-08-06T01:51:44;6.35;;;3.92;;
19343;SDS011;9808;52.402;16.678;2023-08-06T01:54:11;7.68;;;3.35;;
19343;SDS011;9808;52.402;16.678;2023-08-06T01:56:39;6.45;;;3.33;;
19343;SDS011;9808;52.402;16.678;2023-08-06T01:59:08;6.97;;;3.40;;
19343;SDS011;9808;52.402;16.678;2023-08-06T02:01:38;9.25;;;3.50;;
19343;SDS011;9808;52.402;16.678;2023-08-06T02:04:07;7.28;;;3.28;;
19343;SDS011;9808;52.402;16.678;2023-08-06T02:06:37;6.90;;;3.47;;
19343;SDS011;9808;52.402;16.678;2023-08-06T02:09:08;6.57;;;3.78;;
19343;SDS011;9808;52.402;16.678;2023-08-06T02:11:35;9.32;;;3.97;;
19343;SDS011;9808;52.402;16.678;2023-08-06T02:14:02;7.50;;;3.40;;
19343;SDS011;9808;52.402;16.678;2023-08-06T02:16:29;6.18;;;3.25;;
19343;SDS011;9808;52.402;16.678;2023-08-06T02:18:59;6.68;;;3.97;;
19343;SDS011;9808;52.402;16.678;2023-08-06T02:21:26;5.28;;;3.10;;
19343;SDS011;9808;52.402;16.678;2023-08-06T02:23:54;5.85;;;3.30;;
19343;SDS011;9808;52.402;16.678;2023-08-06T02:26:22;5.07;;;3.13;;
19343;SDS011;9808;52.402;16.678;2023-08-06T02:28:49;7.05;;;3.30;;
19343;SDS011;9808;52.402;16.678;2023-08-06T02:31:16;7.45;;;3.13;;
19343;SDS011;9808;52.402;16.678;2023-08-06T02:33:44;11.48;;;3.50;;
19343;SDS011;9808;52.402;16.678;2023-08-06T02:36:11;5.35;;;2.72;;
19343;SDS011;9808;52.402;16.678;2023-08-06T02:38:38;5.68;;;2.75;;
19343;SDS011;9808;52.402;16.678;2023-08-06T02:41:06;6.28;;;3.22;;
19343;SDS011;9808;52.402;16.678;2023-08-06T02:43:33;6.82;;;3.15;;
19343;SDS011;9808;52.402;16.678;2023-08-06T02:46:00;5.50;;;3.08;;
19343;SDS011;9808;52.402;16.678;2023-08-06T02:48:27;5.25;;;2.95;;
19343;SDS011;9808;52.402;16.678;2023-08-06T02:50:58;5.53;;;3.00;;
19343;SDS011;9808;52.402;16.678;2023-08-06T02:53:26;4.85;;;2.88;;
19343;SDS011;9808;52.402;16.678;2023-08-06T02:55:53;4.68;;;2.65;;
19343;SDS011;9808;52.402;16.678;2023-08-06T02:58:21;5.05;;;2.55;;
19343;SDS011;9808;52.402;16.678;2023-08-06T03:01:01;4.65;;;2.45;;
19343;SDS011;9808;52.402;16.678;2023-08-06T03:03:30;4.20;;;2.25;;
19343;SDS011;9808;52.402;16.678;2023-08-06T03:05:57;4.20;;;2.05;;
19343;SDS011;9808;52.402;16.678;2023-08-06T03:08:25;3.50;;;1.80;;
19343;SDS011;9808;52.402;16.678;2023-08-06T03:10:52;4.72;;;1.88;;
19343;SDS011;9808;52.402;16.678;2023-08-06T03:13:20;3.95;;;1.92;;
19343;SDS011;9808;52.402;16.678;2023-08-06T03:15:56;5.78;;;2.08;;
19343;SDS011;9808;52.402;16.678;2023-08-06T03:18:24;7.07;;;2.00;;
19343;SDS011;9808;52.402;16.678;2023-08-06T03:20:54;4.38;;;1.80;;
19343;SDS011;9808;52.402;16.678;2023-08-06T03:23:21;3.30;;;1.73;;
19343;SDS011;9808;52.402;16.678;2023-08-06T03:25:49;3.45;;;1.88;;
19343;SDS011;9808;52.402;16.678;2023-08-06T03:28:16;4.60;;;2.00;;
19343;SDS011;9808;52.402;16.678;2023-08-06T03:30:45;2.53;;;1.77;;
19343;SDS011;9808;52.402;16.678;2023-08-06T03:33:13;2.85;;;1.50;;
19343;SDS011;9808;52.402;16.678;2023-08-06T03:35:40;2.50;;;1.70;;
19343;SDS011;9808;52.402;16.678;2023-08-06T03:38:08;7.35;;;2.10;;
19343;SDS011;9808;52.402;16.678;2023-08-06T03:40:35;5.35;;;1.83;;
19343;SDS011;9808;52.402;16.678;2023-08-06T03:43:02;2.80;;;1.55;;
19343;SDS011;9808;52.402;16.678;2023-08-06T03:45:29;2.50;;;1.50;;
19343;SDS011;9808;52.402;16.678;2023-08-06T03:47:57;4.88;;;1.80;;
19343;SDS011;9808;52.402;16.678;2023-08-06T03:50:24;2.83;;;1.63;;
19343;SDS011;9808;52.402;16.678;2023-08-06T03:52:51;5.32;;;1.80;;
19343;SDS011;9808;52.402;16.678;2023-08-06T03:55:18;5.28;;;1.80;;
19343;SDS011;9808;52.402;16.678;2023-08-06T03:57:45;4.93;;;1.55;;
19343;SDS011;9808;52.402;16.678;2023-08-06T04:00:13;4.15;;;1.52;;
19343;SDS011;9808;52.402;16.678;2023-08-06T04:02:40;2.78;;;1.58;;
19343;SDS011;9808;52.402;16.678;2023-08-06T04:05:07;2.47;;;1.40;;
19343;SDS011;9808;52.402;16.678;2023-08-06T04:07:35;2.38;;;1.33;;
19343;SDS011;9808;52.402;16.678;2023-08-06T04:10:02;2.83;;;1.33;;
19343;SDS011;9808;52.402;16.678;2023-08-06T04:12:30;2.72;;;1.63;;
19343;SDS011;9808;52.402;16.678;2023-08-06T04:14:59;3.17;;;1.45;;
19343;SDS011;9808;52.402;16.678;2023-08-06T04:17:26;3.53;;;1.77;;
19343;SDS011;9808;52.402;16.678;2023-08-06T04:19:54;3.15;;;1.70;;
19343;SDS011;9808;52.402;16.678;2023-08-06T04:22:24;3.13;;;1.52;;
19343;SDS011;9808;52.402;16.678;2023-08-06T04:24:52;2.90;;;1.55;;
19343;SDS011;9808;52.402;16.678;2023-08-06T04:27:19;4.03;;;1.50;;
19343;SDS011;9808;52.402;16.678;2023-08-06T04:29:46;2.50;;;1.15;;
19343;SDS011;9808;52.402;16.678;2023-08-06T04:32:14;3.53;;;1.30;;
19343;SDS011;9808;52.402;16.678;2023-08-06T04:34:41;3.30;;;1.40;;
19343;SDS011;9808;52.402;16.678;2023-08-06T04:37:09;1.33;;;1.00;;
19343;SDS011;9808;52.402;16.678;2023-08-06T04:39:36;2.85;;;1.27;;
19343;SDS011;9808;52.402;16.678;2023-08-06T04:42:04;2.17;;;1.25;;
19343;SDS011;9808;52.402;16.678;2023-08-06T04:44:31;2.83;;;1.00;;
19343;SDS011;9808;52.402;16.678;2023-08-06T04:46:58;1.40;;;1.00;;
19343;SDS011;9808;52.402;16.678;2023-08-06T04:49:25;2.15;;;1.10;;
19343;SDS011;9808;52.402;16.678;2023-08-06T04:51:53;0.90;;;0.80;;
19343;SDS011;9808;52.402;16.678;2023-08-06T04:54:20;1.65;;;0.85;;
19343;SDS011;9808;52.402;16.678;2023-08-06T04:56:47;2.90;;;0.80;;
19343;SDS011;9808;52.402;16.678;2023-08-06T04:59:15;2.15;;;0.85;;
19343;SDS011;9808;52.402;16.678;2023-08-06T05:01:42;1.70;;;0.85;;
19343;SDS011;9808;52.402;16.678;2023-08-06T05:04:09;3.80;;;0.68;;
19343;SDS011;9808;52.402;16.678;2023-08-06T05:06:37;2.08;;;1.00;;
19343;SDS011;9808;52.402;16.678;2023-08-06T05:09:07;2.00;;;0.80;;
19343;SDS011;9808;52.402;16.678;2023-08-06T05:11:34;3.08;;;1.23;;
19343;SDS011;9808;52.402;16.678;2023-08-06T05:14:02;1.20;;;0.90;;
19343;SDS011;9808;52.402;16.678;2023-08-06T05:16:29;6.32;;;1.00;;
19343;SDS011;9808;52.402;16.678;2023-08-06T05:18:56;1.67;;;0.90;;
19343;SDS011;9808;52.402;16.678;2023-08-06T05:21:23;2.33;;;1.08;;
19343;SDS011;9808;52.402;16.678;2023-08-06T05:23:51;1.40;;;0.77;;
19343;SDS011;9808;52.402;16.678;2023-08-06T05:26:18;3.30;;;0.82;;
19343;SDS011;9808;52.402;16.678;2023-08-06T05:28:45;2.45;;;1.10;;
19343;SDS011;9808;52.402;16.678;2023-08-06T05:31:13;1.90;;;0.70;;
19343;SDS011;9808;52.402;16.678;2023-08-06T05:33:40;1.58;;;0.90;;
19343;SDS011;9808;52.402;16.678;2023-08-06T05:36:07;1.08;;;0.70;;
19343;SDS011;9808;52.402;16.678;2023-08-06T05:38:35;1.17;;;0.80;;
19343;SDS011;9808;52.402;16.678;2023-08-06T05:41:02;2.33;;;1.00;;
19343;SDS011;9808;52.402;16.678;2023-08-06T05:43:30;3.50;;;1.02;;
19343;SDS011;9808;52.402;16.678;2023-08-06T05:45:57;2.03;;;0.70;;
19343;SDS011;9808;52.402;16.678;2023-08-06T05:48:24;1.83;;;0.82;;
19343;SDS011;9808;52.402;16.678;2023-08-06T05:50:54;1.55;;;1.00;;
19343;SDS011;9808;52.402;16.678;2023-08-06T05:53:21;1.50;;;0.90;;
19343;SDS011;9808;52.402;16.678;2023-08-06T05:55:48;1.35;;;0.70;;
19343;SDS011;9808;52.402;16.678;2023-08-06T05:58:15;1.10;;;0.75;;
19343;SDS011;9808;52.402;16.678;2023-08-06T06:00:43;0.93;;;0.77;;
19343;SDS011;9808;52.402;16.678;2023-08-06T06:03:10;1.40;;;0.90;;
19343;SDS011;9808;52.402;16.678;2023-08-06T06:05:37;1.67;;;1.10;;
19343;SDS011;9808;52.402;16.678;2023-08-06T06:08:07;1.33;;;0.80;;
19343;SDS011;9808;52.402;16.678;2023-08-06T06:10:35;1.55;;;1.10;;
19343;SDS011;9808;52.402;16.678;2023-08-06T06:13:02;1.60;;;1.00;;
19343;SDS011;9808;52.402;16.678;2023-08-06T06:15:29;1.13;;;0.75;;
19343;SDS011;9808;52.402;16.678;2023-08-06T06:17:56;1.65;;;1.02;;
19343;SDS011;9808;52.402;16.678;2023-08-06T06:20:24;0.85;;;0.70;;
19343;SDS011;9808;52.402;16.678;2023-08-06T06:22:51;1.10;;;0.80;;
19343;SDS011;9808;52.402;16.678;2023-08-06T06:25:18;1.48;;;0.75;;
19343;SDS011;9808;52.402;16.678;2023-08-06T06:27:46;2.10;;;1.17;;
19343;SDS011;9808;52.402;16.678;2023-08-06T06:30:13;2.60;;;1.17;;
19343;SDS011;9808;52.402;16.678;2023-08-06T06:32:40;2.08;;;0.90;;
19343;SDS011;9808;52.402;16.678;2023-08-06T06:35:08;1.77;;;0.73;;
19343;SDS011;9808;52.402;16.678;2023-08-06T06:37:35;0.80;;;0.70;;
19343;SDS011;9808;52.402;16.678;2023-08-06T06:40:02;1.45;;;0.90;;
19343;SDS011;9808;52.402;16.678;2023-08-06T06:42:30;3.90;;;1.20;;
19343;SDS011;9808;52.402;16.678;2023-08-06T06:44:57;1.27;;;0.77;;
19343;SDS011;9808;52.402;16.678;2023-08-06T06:47:25;3.88;;;2.10;;
19343;SDS011;9808;52.402;16.678;2023-08-06T06:49:52;6.25;;;2.22;;
19343;SDS011;9808;52.402;16.678;2023-08-06T06:52:20;6.20;;;3.15;;
19343;SDS011;9808;52.402;16.678;2023-08-06T06:54:47;6.65;;;1.60;;
19343;SDS011;9808;52.402;16.678;2023-08-06T06:57:14;2.65;;;1.00;;
19343;SDS011;9808;52.402;16.678;2023-08-06T06:59:41;1.45;;;1.00;;
19343;SDS011;9808;52.402;16.678;2023-08-06T07:02:08;1.85;;;0.70;;
19343;SDS011;9808;52.402;16.678;2023-08-06T07:04:36;2.83;;;0.93;;
19343;SDS011;9808;52.402;16.678;2023-08-06T07:07:03;4.55;;;0.80;;
19343;SDS011;9808;52.402;16.678;2023-08-06T07:09:31;1.17;;;0.80;;
19343;SDS011;9808;52.402;16.678;2023-08-06T07:11:58;1.10;;;0.70;;
19343;SDS011;9808;52.402;16.678;2023-08-06T07:14:25;0.85;;;0.50;;
19343;SDS011;9808;52.402;16.678;2023-08-06T07:16:52;0.70;;;0.50;;
19343;SDS011;9808;52.402;16.678;2023-08-06T07:19:20;2.20;;;0.70;;
19343;SDS011;9808;52.402;16.678;2023-08-06T07:21:47;1.20;;;0.60;;
19343;SDS011;9808;52.402;16.678;2023-08-06T07:24:14;1.40;;;0.75;;
19343;SDS011;9808;52.402;16.678;2023-08-06T07:26:41;1.20;;;0.60;;
19343;SDS011;9808;52.402;16.678;2023-08-06T07:29:09;0.70;;;0.50;;
19343;SDS011;9808;52.402;16.678;2023-08-06T07:31:36;1.67;;;0.80;;
19343;SDS011;9808;52.402;16.678;2023-08-06T07:34:03;2.10;;;0.73;;
19343;SDS011;9808;52.402;16.678;2023-08-06T07:36:30;2.40;;;0.60;;
19343;SDS011;9808;52.402;16.678;2023-08-06T07:38:58;1.85;;;0.82;;
19343;SDS011;9808;52.402;16.678;2023-08-06T07:41:25;4.68;;;1.95;;
19343;SDS011;9808;52.402;16.678;2023-08-06T07:43:52;1.00;;;0.80;;
19343;SDS011;9808;52.402;16.678;2023-08-06T07:46:20;0.90;;;0.57;;
19343;SDS011;9808;52.402;16.678;2023-08-06T07:48:47;1.40;;;0.60;;
19343;SDS011;9808;52.402;16.678;2023-08-06T07:51:14;0.85;;;0.40;;
19343;SDS011;9808;52.402;16.678;2023-08-06T07:53:41;1.17;;;0.60;;
19343;SDS011;9808;52.402;16.678;2023-08-06T07:56:09;1.67;;;0.60;;
19343;SDS011;9808;52.402;16.678;2023-08-06T07:58:36;0.88;;;0.50;;
19343;SDS011;9808;52.402;16.678;2023-08-06T08:01:03;2.17;;;1.00;;
19343;SDS011;9808;52.402;16.678;2023-08-06T08:03:31;1.25;;;0.70;;
19343;SDS011;9808;52.402;16.678;2023-08-06T08:05:58;2.45;;;1.27;;
19343;SDS011;9808;52.402;16.678;2023-08-06T08:08:25;2.75;;;1.00;;
19343;SDS011;9808;52.402;16.678;2023-08-06T08:10:53;1.25;;;0.63;;
19343;SDS011;9808;52.402;16.678;2023-08-06T08:13:21;3.00;;;1.67;;
19343;SDS011;9808;52.402;16.678;2023-08-06T08:15:48;2.85;;;1.10;;
19343;SDS011;9808;52.402;16.678;2023-08-06T08:18:16;1.80;;;1.20;;
19343;SDS011;9808;52.402;16.678;2023-08-06T08:20:43;2.42;;;1.38;;
19343;SDS011;9808;52.402;16.678;2023-08-06T08:23:11;3.05;;;1.60;;
19343;SDS011;9808;52.402;16.678;2023-08-06T08:25:38;5.07;;;1.33;;
19343;SDS011;9808;52.402;16.678;2023-08-06T08:28:05;3.80;;;0.95;;
19343;SDS011;9808;52.402;16.678;2023-08-06T08:30:32;1.85;;;1.17;;
19343;SDS011;9808;52.402;16.678;2023-08-06T08:33:00;4.15;;;0.90;;
19343;SDS011;9808;52.402;16.678;2023-08-06T08:35:27;3.10;;;1.73;;
19343;SDS011;9808;52.402;16.678;2023-08-06T08:37:54;0.63;;;0.50;;
19343;SDS011;9808;52.402;16.678;2023-08-06T08:40:22;2.72;;;0.77;;
19343;SDS011;9808;52.402;16.678;2023-08-06T08:42:55;2.22;;;0.80;;
19343;SDS011;9808;52.402;16.678;2023-08-06T08:45:22;4.32;;;1.90;;
19343;SDS011;9808;52.402;16.678;2023-08-06T08:47:51;1.63;;;0.90;;
19343;SDS011;9808;52.402;16.678;2023-08-06T08:50:19;3.88;;;0.60;;
19343;SDS011;9808;52.402;16.678;2023-08-06T08:52:46;0.75;;;0.43;;
19343;SDS011;9808;52.402;16.678;2023-08-06T08:55:15;1.95;;;0.60;;
19343;SDS011;9808;52.402;16.678;2023-08-06T08:57:42;1.08;;;0.65;;
19343;SDS011;9808;52.402;16.678;2023-08-06T09:00:10;3.30;;;1.20;;
19343;SDS011;9808;52.402;16.678;2023-08-06T09:02:37;1.67;;;0.43;;
19343;SDS011;9808;52.402;16.678;2023-08-06T09:05:04;0.50;;;0.40;;
19343;SDS011;9808;52.402;16.678;2023-08-06T09:07:34;1.30;;;0.50;;
19343;SDS011;9808;52.402;16.678;2023-08-06T09:10:02;0.68;;;0.40;;
19343;SDS011;9808;52.402;16.678;2023-08-06T09:12:31;1.48;;;0.25;;
19343;SDS011;9808;52.402;16.678;2023-08-06T09:14:58;1.10;;;0.70;;
19343;SDS011;9808;52.402;16.678;2023-08-06T09:17:25;0.35;;;0.30;;
19343;SDS011;9808;52.402;16.678;2023-08-06T09:19:54;2.83;;;0.50;;
19343;SDS011;9808;52.402;16.678;2023-08-06T09:22:22;1.60;;;0.40;;
19343;SDS011;9808;52.402;16.678;2023-08-06T09:24:50;1.10;;;0.50;;
19343;SDS011;9808;52.402;16.678;2023-08-06T09:27:17;1.25;;;0.70;;
19343;SDS011;9808;52.402;16.678;2023-08-06T09:29:44;11.18;;;1.00;;
19343;SDS011;9808;52.402;16.678;2023-08-06T09:32:13;0.82;;;0.50;;
19343;SDS011;9808;52.402;16.678;2023-08-06T09:34:41;2.80;;;0.70;;
19343;SDS011;9808;52.402;16.678;2023-08-06T09:37:09;1.88;;;0.70;;
19343;SDS011;9808;52.402;16.678;2023-08-06T09:39:38;1.25;;;0.60;;
19343;SDS011;9808;52.402;16.678;2023-08-06T09:42:06;2.20;;;0.65;;
19343;SDS011;9808;52.402;16.678;2023-08-06T09:44:33;3.30;;;0.47;;
19343;SDS011;9808;52.402;16.678;2023-08-06T09:47:02;2.97;;;0.50;;
19343;SDS011;9808;52.402;16.678;2023-08-06T09:52:00;0.30;;;0.28;;
19343;SDS011;9808;52.402;16.678;2023-08-06T09:54:27;0.65;;;0.40;;
19343;SDS011;9808;52.402;16.678;2023-08-06T09:56:56;1.02;;;0.63;;
19343;SDS011;9808;52.402;16.678;2023-08-06T09:59:24;0.25;;;0.22;;
19343;SDS011;9808;52.402;16.678;2023-08-06T10:01:51;0.65;;;0.38;;
19343;SDS011;9808;52.402;16.678;2023-08-06T10:04:20;1.55;;;0.30;;
19343;SDS011;9808;52.402;16.678;2023-08-06T10:06:54;1.15;;;0.30;;
19343;SDS011;9808;52.402;16.678;2023-08-06T10:09:21;0.88;;;0.50;;
19343;SDS011;9808;52.402;16.678;2023-08-06T10:11:51;1.10;;;0.40;;
19343;SDS011;9808;52.402;16.678;2023-08-06T10:14:27;1.05;;;0.38;;
19343;SDS011;9808;52.402;16.678;2023-08-06T10:16:56;1.08;;;0.40;;
19343;SDS011;9808;52.402;16.678;2023-08-06T10:19:24;0.40;;;0.30;;
19343;SDS011;9808;52.402;16.678;2023-08-06T10:24:53;0.50;;;0.20;;
19343;SDS011;9808;52.402;16.678;2023-08-06T10:27:32;2.60;;;0.30;;
19343;SDS011;9808;52.402;16.678;2023-08-06T10:32:49;0.68;;;0.30;;
19343;SDS011;9808;52.402;16.678;2023-08-06T10:35:29;0.80;;;0.30;;
19343;SDS011;9808;52.402;16.678;2023-08-06T10:40:27;0.75;;;0.25;;
19343;SDS011;9808;52.402;16.678;2023-08-06T10:42:58;0.35;;;0.30;;
19343;SDS011;9808;52.402;16.678;2023-08-06T10:45:25;0.68;;;0.20;;
19343;SDS011;9808;52.402;16.678;2023-08-06T10:47:55;1.48;;;0.30;;
19343;SDS011;9808;52.402;16.678;2023-08-06T10:50:24;1.00;;;0.30;;
19343;SDS011;9808;52.402;16.678;2023-08-06T10:52:51;0.10;;;0.10;;
19343;SDS011;9808;52.402;16.678;2023-08-06T10:55:22;1.42;;;0.35;;
19343;SDS011;9808;52.402;16.678;2023-08-06T10:57:50;0.82;;;0.40;;
19343;SDS011;9808;52.402;16.678;2023-08-06T11:00:18;0.35;;;0.25;;
19343;SDS011;9808;52.402;16.678;2023-08-06T11:02:46;0.38;;;0.22;;
19343;SDS011;9808;52.402;16.678;2023-08-06T11:05:15;1.13;;;0.20;;
19343;SDS011;9808;52.402;16.678;2023-08-06T11:07:42;0.30;;;0.15;;
19343;SDS011;9808;52.402;16.678;2023-08-06T11:10:11;2.35;;;0.15;;
19343;SDS011;9808;52.402;16.678;2023-08-06T11:12:38;0.00;;;0.00;;
19343;SDS011;9808;52.402;16.678;2023-08-06T11:15:06;0.65;;;0.30;;
19343;SDS011;9808;52.402;16.678;2023-08-06T11:17:33;0.28;;;0.25;;
19343;SDS011;9808;52.402;16.678;2023-08-06T11:20:02;0.43;;;0.30;;
19343;SDS011;9808;52.402;16.678;2023-08-06T11:22:30;4.10;;;0.70;;
19343;SDS011;9808;52.402;16.678;2023-08-06T11:24:57;2.45;;;0.25;;
19343;SDS011;9808;52.402;16.678;2023-08-06T11:27:27;0.85;;;0.30;;
19343;SDS011;9808;52.402;16.678;2023-08-06T11:29:55;0.40;;;0.20;;
19343;SDS011;9808;52.402;16.678;2023-08-06T11:32:22;0.40;;;0.30;;
19343;SDS011;9808;52.402;16.678;2023-08-06T11:34:50;1.10;;;0.43;;
19343;SDS011;9808;52.402;16.678;2023-08-06T11:37:20;0.40;;;0.22;;
19343;SDS011;9808;52.402;16.678;2023-08-06T11:39:48;4.82;;;2.22;;
19343;SDS011;9808;52.402;16.678;2023-08-06T11:42:16;4.22;;;1.27;;
19343;SDS011;9808;52.402;16.678;2023-08-06T11:44:43;1.60;;;0.80;;
19343;SDS011;9808;52.402;16.678;2023-08-06T11:47:14;1.95;;;0.40;;
19343;SDS011;9808;52.402;16.678;2023-08-06T11:49:46;7.57;;;0.90;;
19343;SDS011;9808;52.402;16.678;2023-08-06T11:52:15;0.65;;;0.40;;
19343;SDS011;9808;52.402;16.678;2023-08-06T11:54:45;1.60;;;0.60;;
19343;SDS011;9808;52.402;16.678;2023-08-06T11:57:13;0.85;;;0.55;;
19343;SDS011;9808;52.402;16.678;2023-08-06T11:59:43;0.80;;;0.40;;
19343;SDS011;9808;52.402;16.678;2023-08-06T12:02:10;2.30;;;0.45;;
19343;SDS011;9808;52.402;16.678;2023-08-06T12:07:28;3.13;;;0.50;;
19343;SDS011;9808;52.402;16.678;2023-08-06T12:09:55;0.32;;;0.20;;
19343;SDS011;9808;52.402;16.678;2023-08-06T12:12:23;0.80;;;0.50;;
19343;SDS011;9808;52.402;16.678;2023-08-06T12:14:50;0.50;;;0.40;;
19343;SDS011;9808;52.402;16.678;2023-08-06T12:17:17;1.17;;;0.40;;
19343;SDS011;9808;52.402;16.678;2023-08-06T12:19:45;0.82;;;0.30;;
19343;SDS011;9808;52.402;16.678;2023-08-06T12:22:14;0.82;;;0.52;;
19343;SDS011;9808;52.402;16.678;2023-08-06T12:24:41;1.27;;;0.70;;
19343;SDS011;9808;52.402;16.678;2023-08-06T12:27:09;0.70;;;0.60;;
19343;SDS011;9808;52.402;16.678;2023-08-06T12:29:47;1.13;;;0.30;;
19343;SDS011;9808;52.402;16.678;2023-08-06T12:32:14;0.80;;;0.30;;
19343;SDS011;9808;52.402;16.678;2023-08-06T12:34:42;1.75;;;0.57;;
19343;SDS011;9808;52.402;16.678;2023-08-06T12:37:18;0.75;;;0.30;;
19343;SDS011;9808;52.402;16.678;2023-08-06T12:39:46;0.55;;;0.35;;
19343;SDS011;9808;52.402;16.678;2023-08-06T12:42:13;3.85;;;0.38;;
19343;SDS011;9808;52.402;16.678;2023-08-06T12:44:40;0.60;;;0.35;;
19343;SDS011;9808;52.402;16.678;2023-08-06T12:47:07;2.95;;;0.70;;
19343;SDS011;9808;52.402;16.678;2023-08-06T12:49:35;0.47;;;0.40;;
19343;SDS011;9808;52.402;16.678;2023-08-06T12:52:02;1.33;;;0.20;;
19343;SDS011;9808;52.402;16.678;2023-08-06T12:54:32;0.50;;;0.40;;
19343;SDS011;9808;52.402;16.678;2023-08-06T12:57:03;0.47;;;0.40;;
19343;SDS011;9808;52.402;16.678;2023-08-06T12:59:31;0.73;;;0.50;;
19343;SDS011;9808;52.402;16.678;2023-08-06T13:02:00;0.47;;;0.30;;
19343;SDS011;9808;52.402;16.678;2023-08-06T13:04:27;0.68;;;0.50;;
19343;SDS011;9808;52.402;16.678;2023-08-06T13:06:54;0.73;;;0.45;;
19343;SDS011;9808;52.402;16.678;2023-08-06T13:09:22;0.50;;;0.40;;
19343;SDS011;9808;52.402;16.678;2023-08-06T13:11:49;0.95;;;0.55;;
19343;SDS011;9808;52.402;16.678;2023-08-06T13:14:17;0.45;;;0.40;;
19343;SDS011;9808;52.402;16.678;2023-08-06T13:16:44;0.90;;;0.40;;
19343;SDS011;9808;52.402;16.678;2023-08-06T13:19:11;1.00;;;0.52;;
19343;SDS011;9808;52.402;16.678;2023-08-06T13:24:07;0.63;;;0.40;;
19343;SDS011;9808;52.402;16.678;2023-08-06T13:26:34;0.90;;;0.55;;
19343;SDS011;9808;52.402;16.678;2023-08-06T13:29:02;0.88;;;0.50;;
19343;SDS011;9808;52.402;16.678;2023-08-06T13:31:29;1.70;;;0.80;;
19343;SDS011;9808;52.402;16.678;2023-08-06T13:33:57;1.05;;;0.50;;
19343;SDS011;9808;52.402;16.678;2023-08-06T13:36:25;0.82;;;0.50;;
19343;SDS011;9808;52.402;16.678;2023-08-06T13:38:53;0.90;;;0.60;;
19343;SDS011;9808;52.402;16.678;2023-08-06T13:41:20;0.40;;;0.30;;
19343;SDS011;9808;52.402;16.678;2023-08-06T13:43:47;1.00;;;0.22;;
19343;SDS011;9808;52.402;16.678;2023-08-06T13:46:14;0.50;;;0.30;;
19343;SDS011;9808;52.402;16.678;2023-08-06T13:48:47;0.77;;;0.38;;
19343;SDS011;9808;52.402;16.678;2023-08-06T13:51:17;0.40;;;0.30;;
19343;SDS011;9808;52.402;16.678;2023-08-06T13:53:45;1.80;;;0.93;;
19343;SDS011;9808;52.402;16.678;2023-08-06T13:56:12;7.38;;;0.77;;
19343;SDS011;9808;52.402;16.678;2023-08-06T13:58:44;1.27;;;0.60;;
19343;SDS011;9808;52.402;16.678;2023-08-06T14:01:11;0.40;;;0.40;;
19343;SDS011;9808;52.402;16.678;2023-08-06T14:03:39;1.33;;;0.68;;
19343;SDS011;9808;52.402;16.678;2023-08-06T14:06:07;1.42;;;0.50;;
19343;SDS011;9808;52.402;16.678;2023-08-06T14:08:34;1.35;;;0.70;;
19343;SDS011;9808;52.402;16.678;2023-08-06T14:11:01;1.10;;;0.70;;
19343;SDS011;9808;52.402;16.678;2023-08-06T14:13:28;0.85;;;0.40;;
19343;SDS011;9808;52.402;16.678;2023-08-06T14:15:56;0.82;;;0.57;;
19343;SDS011;9808;52.402;16.678;2023-08-06T14:18:23;2.85;;;0.30;;
19343;SDS011;9808;52.402;16.678;2023-08-06T14:20:50;1.08;;;0.50;;
19343;SDS011;9808;52.402;16.678;2023-08-06T14:23:17;0.68;;;0.32;;
19343;SDS011;9808;52.402;16.678;2023-08-06T14:25:45;1.20;;;0.47;;
19343;SDS011;9808;52.402;16.678;2023-08-06T14:28:12;1.08;;;0.40;;
19343;SDS011;9808;52.402;16.678;2023-08-06T14:30:39;1.60;;;0.40;;
19343;SDS011;9808;52.402;16.678;2023-08-06T14:33:06;2.25;;;0.50;;
19343;SDS011;9808;52.402;16.678;2023-08-06T14:35:52;1.05;;;0.50;;
19343;SDS011;9808;52.402;16.678;2023-08-06T14:38:19;1.05;;;0.60;;
19343;SDS011;9808;52.402;16.678;2023-08-06T14:40:46;1.33;;;0.70;;
19343;SDS011;9808;52.402;16.678;2023-08-06T14:43:14;1.85;;;0.57;;
19343;SDS011;9808;52.402;16.678;2023-08-06T14:45:41;0.70;;;0.60;;
19343;SDS011;9808;52.402;16.678;2023-08-06T14:48:08;0.95;;;0.57;;
19343;SDS011;9808;52.402;16.678;2023-08-06T14:50:36;2.00;;;0.82;;
19343;SDS011;9808;52.402;16.678;2023-08-06T14:53:05;0.70;;;0.60;;
19343;SDS011;9808;52.402;16.678;2023-08-06T14:55:32;0.77;;;0.40;;
19343;SDS011;9808;52.402;16.678;2023-08-06T14:58:00;0.63;;;0.40;;
19343;SDS011;9808;52.402;16.678;2023-08-06T15:00:28;1.40;;;0.32;;
19343;SDS011;9808;52.402;16.678;2023-08-06T15:02:55;2.05;;;0.60;;
19343;SDS011;9808;52.402;16.678;2023-08-06T15:05:24;1.77;;;0.65;;
19343;SDS011;9808;52.402;16.678;2023-08-06T15:07:51;0.80;;;0.60;;
19343;SDS011;9808;52.402;16.678;2023-08-06T15:10:19;1.25;;;0.60;;
19343;SDS011;9808;52.402;16.678;2023-08-06T15:12:49;1.48;;;0.70;;